Time;durP1;ratioP1;P1;durP2;ratioP2;P2;SDS_P1;SDS_P2;PMS_P1;PMS_P2;Temp;Humidity;BMP_temperature;BMP_pressure;BME280_temperature;BME280_humidity;BME280_pressure;Samples;Min_cycle;Max_cycle;Signal;HPM_P1;HPM_P2
2021/12/26 00:01:18;;;;;;;5.20;3.35;;;;;;;1.10;93.28;96859.67;1739256;82;20989;-76
2021/12/26 00:03:46;;;;;;;4.72;3.33;;;;;;;1.14;93.09;96856.16;1739377;82;21009;-76
2021/12/26 00:06:20;;;;;;;5.10;3.45;;;;;;;1.18;93.19;96856.56;1751542;81;20970;-72
2021/12/26 00:08:49;;;;;;;4.75;3.47;;;;;;;1.19;92.97;96856.09;1769842;80;21096;-72
2021/12/26 00:11:17;;;;;;;4.85;3.40;;;;;;;1.15;92.95;96854.39;1769698;81;21021;-72
2021/12/26 00:13:44;;;;;;;4.70;3.10;;;;;;;1.16;92.81;96869.20;1769577;81;21466;-72
2021/12/26 00:16:12;;;;;;;4.90;3.50;;;;;;;1.13;92.58;96869.22;1758002;81;20993;-72
2021/12/26 00:18:45;;;;;;;4.80;3.40;;;;;;;1.09;92.50;96872.30;1739270;82;21070;-72
2021/12/26 00:21:14;;;;;;;5.33;3.42;;;;;;;1.05;92.52;96861.47;1741330;81;21048;-72
2021/12/26 00:23:40;;;;;;;4.70;3.10;;;;;;;1.05;92.56;96871.45;1754881;81;21404;-72
2021/12/26 00:26:07;;;;;;;6.12;4.00;;;;;;;1.02;92.06;96869.31;1754522;81;21021;-72
2021/12/26 00:28:33;;;;;;;4.58;3.47;;;;;;;0.96;91.98;96867.66;1768154;81;21025;-72
2021/12/26 00:31:01;;;;;;;6.30;3.80;;;;;;;0.91;92.36;96873.32;1769687;81;21045;-72
2021/12/26 00:33:27;;;;;;;6.87;4.47;;;;;;;0.94;92.31;96872.42;1769717;80;21407;-72
2021/12/26 00:35:54;;;;;;;5.85;4.03;;;;;;;0.91;92.33;96871.59;1758593;80;21399;-72
2021/12/26 00:38:21;;;;;;;6.70;4.42;;;;;;;0.89;92.31;96873.36;1739133;82;21064;-72
2021/12/26 00:40:50;;;;;;;5.70;3.55;;;;;;;0.90;92.42;96877.69;1739123;82;21025;-73
2021/12/26 00:43:17;;;;;;;6.00;3.42;;;;;;;0.91;92.29;96880.72;1739191;82;21014;-73
2021/12/26 00:45:45;;;;;;;6.33;3.77;;;;;;;0.90;92.07;96882.03;1739351;82;20969;-72
2021/12/26 00:48:11;;;;;;;5.87;3.87;;;;;;;0.91;92.37;96885.06;1750826;81;21076;-72
2021/12/26 00:50:41;;;;;;;6.12;4.08;;;;;;;0.95;92.24;96879.40;1769651;80;21021;-72
2021/12/26 00:53:08;;;;;;;5.87;3.80;;;;;;;0.95;92.10;96888.07;1769558;81;21026;-72
2021/12/26 00:55:35;;;;;;;6.70;4.45;;;;;;;0.95;92.42;96886.77;1769423;81;20969;-72
2021/12/26 00:58:01;;;;;;;6.92;4.60;;;;;;;0.97;92.80;96893.28;1739567;81;21462;-72
2021/12/26 01:00:33;;;;;;;6.45;4.50;;;;;;;0.95;92.30;96898.51;1739198;82;21442;-72
2021/12/26 01:03:03;;;;;;;7.58;4.78;;;;;;;0.88;92.95;96893.78;1739038;82;20985;-73
2021/12/26 01:05:33;;;;;;;6.35;4.35;;;;;;;0.90;92.60;96902.48;1739472;82;20993;-73
2021/12/26 01:08:04;;;;;;;8.33;4.78;;;;;;;0.87;93.07;96892.52;1769209;81;21462;-73
2021/12/26 01:10:48;;;;;;;8.25;4.55;;;;;;;0.88;92.65;96895.55;1767285;81;21018;-73
2021/12/26 01:13:30;;;;;;;7.12;4.40;;;;;;;0.92;92.96;96903.31;1769622;81;21024;-71
2021/12/26 01:15:55;;;;;;;6.10;4.15;;;;;;;0.94;92.83;96898.52;1769079;81;21486;-72
2021/12/26 01:18:26;;;;;;;6.05;4.22;;;;;;;0.95;92.76;96897.66;1758157;81;21010;-72
2021/12/26 01:21:01;;;;;;;8.28;4.62;;;;;;;0.99;92.59;96898.06;1738485;82;20969;-72
2021/12/26 01:23:28;;;;;;;7.47;4.72;;;;;;;0.99;92.80;96900.22;1737994;82;21495;-72
2021/12/26 01:25:55;;;;;;;6.97;4.40;;;;;;;1.04;92.91;96898.42;1735296;82;21058;-71
2021/12/26 01:28:28;;;;;;;5.95;4.35;;;;;;;1.07;92.81;96896.69;1741838;82;21010;-72
2021/12/26 01:30:55;;;;;;;6.45;4.40;;;;;;;1.08;92.50;96894.50;1751057;81;20989;-72
2021/12/26 01:33:22;;;;;;;6.78;4.17;;;;;;;1.10;92.47;96891.42;1744961;81;21060;-72
2021/12/26 01:36:04;;;;;;;6.92;4.67;;;;;;;1.18;92.60;96900.05;1771155;81;21052;-72
2021/12/26 01:38:31;;;;;;;8.50;4.92;;;;;;;1.15;92.55;96894.84;1764333;81;21001;-72
2021/12/26 01:41:10;;;;;;;6.37;4.40;;;;;;;1.14;92.37;96895.73;1763165;81;21021;-71
2021/12/26 01:43:45;;;;;;;6.42;4.67;;;;;;;1.16;92.60;96896.60;1741013;81;21017;-72
2021/12/26 01:46:16;;;;;;;7.30;4.37;;;;;;;1.17;92.31;96894.41;1729298;83;21017;-72
2021/12/26 01:48:43;;;;;;;6.62;4.67;;;;;;;1.14;92.38;96894.42;1734312;82;21023;-72
2021/12/26 01:51:11;;;;;;;6.97;4.65;;;;;;;1.14;92.55;96895.73;1734001;83;21021;-72
2021/12/26 01:53:40;;;;;;;7.70;4.58;;;;;;;1.12;92.28;96888.38;1734235;83;21013;-72
2021/12/26 01:56:12;;;;;;;6.47;4.42;;;;;;;1.08;92.29;96878.84;1758455;81;21037;-72
2021/12/26 01:58:40;;;;;;;8.35;4.62;;;;;;;1.08;92.21;96884.91;1764580;81;21470;-71
2021/12/26 02:01:13;;;;;;;7.53;4.50;;;;;;;1.04;92.25;96885.84;1762773;81;21029;-72
2021/12/26 02:03:41;;;;;;;8.25;4.65;;;;;;;1.03;92.19;96877.56;1750391;80;20958;-72
2021/12/26 02:06:10;;;;;;;7.97;4.90;;;;;;;1.02;92.37;96883.23;1734333;83;21037;-72
2021/12/26 02:08:38;;;;;;;7.53;5.47;;;;;;;1.01;92.55;96882.82;1741880;82;21336;-72
2021/12/26 02:11:05;;;;;;;6.58;4.50;;;;;;;0.99;92.81;96885.86;1742704;82;20990;-72
2021/12/26 02:13:38;;;;;;;8.75;5.08;;;;;;;0.96;92.83;96880.70;1724215;81;21017;-72
2021/12/26 02:16:07;;;;;;;8.00;4.33;;;;;;;0.96;92.97;96886.34;1764781;81;20998;-72
2021/12/26 02:18:34;;;;;;;6.47;4.40;;;;;;;0.98;92.80;96881.96;1764533;81;21009;-72
2021/12/26 02:23:55;;;;;;;6.25;4.12;;;;;;;0.96;92.57;96887.22;1712503;83;21028;-72
2021/12/26 02:28:59;;;;;;;8.35;5.17;;;;;;;0.91;93.09;96884.63;1742746;82;20973;-72
2021/12/26 02:31:26;;;;;;;10.88;6.40;;;;;;;0.88;92.91;96883.34;1741245;81;21005;-72
2021/12/26 02:33:53;;;;;;;12.18;6.75;;;;;;;0.84;93.71;96888.62;1764149;81;21028;-71
2021/12/26 02:36:19;;;;;;;12.58;6.35;;;;;;;0.84;93.71;96884.70;1764543;81;21114;-72
2021/12/26 02:38:48;;;;;;;11.93;7.05;;;;;;;0.82;93.68;96886.47;1764674;81;20987;-71
2021/12/26 02:41:15;;;;;;;11.10;7.33;;;;;;;0.80;94.92;96887.78;1764605;81;21032;-72
2021/12/26 02:43:41;;;;;;;13.53;8.58;;;;;;;0.81;94.37;96888.63;1754295;81;21037;-72
2021/12/26 02:46:08;;;;;;;13.75;7.90;;;;;;;0.83;94.59;96884.28;1734432;83;21447;-72
2021/12/26 02:48:37;;;;;;;11.30;7.50;;;;;;;0.85;94.61;96887.30;1734023;83;20970;-72
2021/12/26 02:51:05;;;;;;;12.53;6.78;;;;;;;0.85;95.21;96887.73;1734448;83;21020;-72
2021/12/26 02:53:33;;;;;;;10.85;6.62;;;;;;;0.87;94.96;96884.69;1715504;82;21056;-72
2021/12/26 02:56:03;;;;;;;10.68;6.70;;;;;;;0.89;95.47;96885.09;1759355;81;20974;-71
2021/12/26 02:58:30;;;;;;;9.15;5.83;;;;;;;0.90;95.67;96883.34;1765941;81;21427;-72
2021/12/26 03:01:09;;;;;;;9.18;5.97;;;;;;;0.92;95.29;96881.14;1764557;80;21443;-72
2021/12/26 03:03:36;;;;;;;8.08;4.90;;;;;;;0.96;95.34;96877.20;1755491;81;21013;-72
2021/12/26 03:06:12;;;;;;;8.83;5.50;;;;;;;0.94;95.09;96875.91;1734418;83;21407;-72
2021/12/26 03:08:36;;;;;;;6.22;4.30;;;;;;;0.91;95.01;96878.54;1733748;82;21006;-72
2021/12/26 03:11:03;;;;;;;7.03;5.12;;;;;;;0.89;95.06;96874.66;1734287;83;21045;-71
2021/12/26 03:13:30;;;;;;;8.43;5.28;;;;;;;0.87;94.85;96871.19;1738017;81;21032;-72
2021/12/26 03:15:56;;;;;;;6.60;4.40;;;;;;;0.85;94.92;96870.78;1764470;81;21451;-72
2021/12/26 03:18:23;;;;;;;6.95;4.95;;;;;;;0.82;94.78;96872.12;1764634;81;21045;-73
2021/12/26 03:20:51;;;;;;;7.53;4.37;;;;;;;0.81;94.94;96866.46;1764708;81;21017;-72
2021/12/26 03:23:26;;;;;;;9.45;5.40;;;;;;;0.76;94.96;96873.91;1742517;81;21005;-72
2021/12/26 03:26:00;;;;;;;7.80;5.12;;;;;;;0.76;94.40;96873.91;1734272;82;21029;-72
2021/12/26 03:28:29;;;;;;;9.08;5.78;;;;;;;0.77;93.94;96870.84;1734492;82;21426;-73
2021/12/26 03:30:57;;;;;;;8.88;5.62;;;;;;;0.70;93.79;96873.94;1734241;83;21021;-74
2021/12/26 03:33:24;;;;;;;12.58;6.12;;;;;;;0.69;93.91;96873.52;1737708;81;21040;-73
2021/12/26 03:35:52;;;;;;;8.45;5.80;;;;;;;0.67;94.58;96873.98;1769441;81;20982;-73
2021/12/26 03:38:21;;;;;;;12.85;6.15;;;;;;;0.62;94.56;96880.53;1764486;81;20934;-73
2021/12/26 03:40:51;;;;;;;8.80;5.45;;;;;;;0.62;94.41;96879.22;1764584;81;21005;-73
2021/12/26 03:43:19;;;;;;;8.08;5.40;;;;;;;0.60;94.50;96875.78;1764568;81;20974;-73
2021/12/26 03:45:48;;;;;;;9.25;5.58;;;;;;;0.59;94.48;96874.05;1735212;81;21442;-73
2021/12/26 03:48:18;;;;;;;7.60;5.55;;;;;;;0.64;94.16;96876.61;1734343;82;21451;-73
2021/12/26 03:50:45;;;;;;;9.98;5.55;;;;;;;0.64;93.88;96886.61;1734195;83;21054;-73
2021/12/26 03:53:13;;;;;;;8.08;5.37;;;;;;;0.63;93.95;96890.08;1734320;83;21006;-73
2021/12/26 03:55:44;;;;;;;9.38;6.20;;;;;;;0.65;93.68;96888.77;1734362;83;21081;-73
2021/12/26 03:58:12;;;;;;;8.00;5.30;;;;;;;0.67;93.69;96890.06;1744226;81;21085;-73
2021/12/26 04:00:40;;;;;;;8.85;5.08;;;;;;;0.67;93.58;96889.63;1743751;81;21053;-73
2021/12/26 04:03:08;;;;;;;6.37;4.30;;;;;;;0.69;93.71;96893.51;1773431;81;21037;-73
2021/12/26 04:05:36;;;;;;;6.28;4.15;;;;;;;0.70;93.87;96895.27;1763625;81;20951;-73
2021/12/26 04:08:04;;;;;;;6.25;4.10;;;;;;;0.73;93.95;96904.34;1763959;80;21578;-73
2021/12/26 04:10:31;;;;;;;5.70;3.90;;;;;;;0.76;94.04;96903.03;1764480;81;20982;-73
2021/12/26 04:12:58;;;;;;;5.72;3.80;;;;;;;0.81;94.28;96906.46;1764596;81;21009;-73
2021/12/26 04:15:27;;;;;;;7.12;3.87;;;;;;;0.86;94.31;96897.28;1764715;81;20934;-73
2021/12/26 04:17:57;;;;;;;5.58;3.45;;;;;;;0.91;94.27;96898.11;1764668;81;21056;-71
2021/12/26 04:20:28;;;;;;;5.87;4.22;;;;;;;0.94;94.19;96885.47;1761757;81;21491;-72
2021/12/26 04:22:57;;;;;;;6.47;4.12;;;;;;;0.92;94.19;96894.64;1734440;83;21049;-72
2021/12/26 04:25:24;;;;;;;7.10;3.90;;;;;;;0.93;94.10;96900.28;1735684;82;21076;-72
2021/12/26 04:27:51;;;;;;;6.83;4.75;;;;;;;1.00;94.61;96903.70;1739430;82;21427;-73
2021/12/26 04:30:20;;;;;;;7.28;4.72;;;;;;;1.00;93.91;96898.02;1759464;81;20938;-72
2021/12/26 04:32:48;;;;;;;7.62;4.47;;;;;;;1.00;94.01;96902.40;1768205;81;21451;-73
2021/12/26 04:35:16;;;;;;;6.45;4.15;;;;;;;0.99;94.02;96895.00;1769834;80;20961;-71
2021/12/26 04:37:44;;;;;;;6.97;4.45;;;;;;;0.96;94.07;96895.05;1769861;81;21438;-72
2021/12/26 04:40:15;;;;;;;7.33;4.62;;;;;;;0.94;93.98;96903.30;1749342;80;21439;-72
2021/12/26 04:42:50;;;;;;;6.00;4.47;;;;;;;0.96;93.79;96908.09;1714924;82;21522;-72
2021/12/26 04:45:25;;;;;;;6.17;4.60;;;;;;;0.94;93.59;96916.78;1711284;82;20997;-71
2021/12/26 04:48:11;;;;;;;6.33;4.30;;;;;;;0.89;93.43;96916.41;1739388;82;21475;-73
2021/12/26 04:50:38;;;;;;;7.58;4.72;;;;;;;0.88;93.52;96915.95;1739589;81;21033;-72
2021/12/26 04:53:07;;;;;;;6.37;4.12;;;;;;;0.86;93.24;96912.94;1769540;81;21017;-73
2021/12/26 04:55:34;;;;;;;7.83;4.72;;;;;;;0.80;93.05;96917.78;1769713;81;21009;-73
2021/12/26 04:58:01;;;;;;;7.92;4.95;;;;;;;0.78;93.18;96919.09;1769825;81;20986;-72
2021/12/26 05:00:30;;;;;;;6.50;4.87;;;;;;;0.77;93.13;96915.19;1769766;81;21017;-73
2021/12/26 05:03:01;;;;;;;10.65;5.75;;;;;;;0.74;93.18;96919.98;1762688;80;20965;-73
2021/12/26 05:05:27;;;;;;;10.00;6.12;;;;;;;0.74;93.13;96917.81;1739340;82;21022;-73
2021/12/26 05:07:55;;;;;;;9.58;5.80;;;;;;;0.68;94.18;96915.25;1718357;82;21005;-73
2021/12/26 05:10:25;;;;;;;13.62;6.85;;;;;;;0.62;94.36;96927.46;1739402;82;21014;-73
2021/12/26 05:12:52;;;;;;;9.70;6.12;;;;;;;0.62;93.68;96921.40;1765648;81;20989;-72
2021/12/26 05:15:21;;;;;;;10.38;6.00;;;;;;;0.61;93.79;96923.13;1769743;81;21049;-73
2021/12/26 05:17:49;;;;;;;7.75;5.00;;;;;;;0.64;93.94;96927.45;1769932;81;21001;-73
2021/12/26 05:20:18;;;;;;;7.83;5.33;;;;;;;0.65;93.81;96929.18;1769915;80;21052;-73
2021/12/26 05:22:51;;;;;;;7.55;5.45;;;;;;;0.61;93.98;96933.98;1745153;81;20989;-77
2021/12/26 05:25:19;;;;;;;8.88;5.62;;;;;;;0.61;93.95;96930.95;1739926;82;21017;-77
2021/12/26 05:27:46;;;;;;;7.85;5.37;;;;;;;0.57;94.19;96928.36;1742116;82;21060;-77
2021/12/26 05:30:17;;;;;;;9.50;5.70;;;;;;;0.60;94.13;96937.05;1747304;81;21077;-78
2021/12/26 05:32:46;;;;;;;9.15;6.10;;;;;;;0.63;93.67;96927.03;1764756;81;20989;-77
2021/12/26 05:35:16;;;;;;;7.83;5.58;;;;;;;0.64;93.64;96927.45;1764653;81;21056;-78
2021/12/26 05:37:44;;;;;;;8.00;5.05;;;;;;;0.63;93.83;96937.47;1764567;81;20969;-78
2021/12/26 05:40:14;;;;;;;8.95;5.28;;;;;;;0.63;93.99;96934.41;1751752;80;21407;-77
2021/12/26 05:42:42;;;;;;;8.40;5.20;;;;;;;0.73;94.02;96942.16;1734337;83;21029;-77
2021/12/26 05:45:12;;;;;;;10.93;5.17;;;;;;;0.75;94.12;96941.27;1734388;83;20997;-77
2021/12/26 05:47:41;;;;;;;7.97;5.12;;;;;;;0.81;94.20;96944.28;1733129;81;21069;-78
2021/12/26 05:50:12;;;;;;;8.98;5.47;;;;;;;0.81;93.92;96947.32;1734247;83;20994;-78
2021/12/26 05:52:40;;;;;;;6.75;4.83;;;;;;;0.81;93.90;96936.45;1750734;81;21075;-77
2021/12/26 05:55:12;;;;;;;7.83;5.08;;;;;;;0.86;94.17;96949.45;1764067;81;20985;-77
2021/12/26 05:57:39;;;;;;;7.75;5.15;;;;;;;0.85;94.02;96951.22;1764483;81;21053;-77
2021/12/26 06:00:11;;;;;;;7.85;4.95;;;;;;;0.81;93.88;96948.20;1764623;80;21005;-77
2021/12/26 06:02:40;;;;;;;8.08;5.70;;;;;;;0.80;94.05;96947.78;1764383;81;21001;-77
2021/12/26 06:05:08;;;;;;;8.10;5.47;;;;;;;0.83;93.94;96946.89;1739225;81;21009;-77
2021/12/26 06:07:36;;;;;;;8.70;5.30;;;;;;;0.81;93.74;96958.63;1734415;83;21072;-77
2021/12/26 06:10:05;;;;;;;8.83;5.20;;;;;;;0.81;93.79;96956.02;1734340;82;21153;-77
2021/12/26 06:12:33;;;;;;;8.90;5.90;;;;;;;0.83;93.56;96963.84;1734162;83;21021;-77
2021/12/26 06:15:00;;;;;;;7.08;5.30;;;;;;;0.80;93.69;96959.52;1734400;81;21044;-77
2021/12/26 06:17:26;;;;;;;8.03;5.10;;;;;;;0.79;93.62;96954.72;1734165;83;21021;-77
2021/12/26 06:20:13;;;;;;;7.40;5.53;;;;;;;0.79;93.56;96953.42;1734137;82;21502;-77
2021/12/26 06:22:37;;;;;;;9.80;5.08;;;;;;;0.77;93.44;96955.19;1733798;83;21431;-77
2021/12/26 06:25:10;;;;;;;8.03;5.28;;;;;;;0.76;93.68;96957.38;1708783;83;21056;-77
2021/12/26 06:27:39;;;;;;;8.48;5.95;;;;;;;0.76;93.33;96951.28;1746070;81;21427;-77
2021/12/26 06:30:17;;;;;;;9.98;5.67;;;;;;;0.75;93.36;96964.75;1769710;81;21017;-76
2021/12/26 06:32:48;;;;;;;9.70;6.03;;;;;;;0.74;93.22;96963.02;1763968;80;21006;-76
2021/12/26 06:35:26;;;;;;;8.48;5.87;;;;;;;0.72;93.10;96967.39;1749850;82;21096;-77
2021/12/26 06:38:06;;;;;;;8.05;5.35;;;;;;;0.73;93.37;96956.51;1688419;82;21002;-76
2021/12/26 06:40:51;;;;;;;9.28;5.60;;;;;;;0.75;93.37;96973.03;1721481;82;21463;-76
2021/12/26 06:43:38;;;;;;;9.85;5.87;;;;;;;0.73;93.35;96963.03;1739215;82;21017;-77
2021/12/26 06:46:15;;;;;;;10.13;6.17;;;;;;;0.75;93.76;96965.20;1746031;81;21398;-76
2021/12/26 06:48:50;;;;;;;10.50;5.97;;;;;;;0.81;93.70;96962.97;1760038;81;21076;-76
2021/12/26 06:51:19;;;;;;;37.85;19.62;;;;;;;0.86;93.81;96970.32;1769547;80;21022;-76
2021/12/26 06:53:45;;;;;;;18.50;10.80;;;;;;;0.91;93.77;96972.45;1769633;81;21352;-76
2021/12/26 06:56:12;;;;;;;10.98;6.72;;;;;;;0.94;93.76;96972.87;1769644;80;20958;-76
2021/12/26 06:58:38;;;;;;;9.83;6.08;;;;;;;0.99;93.92;96975.87;1759356;81;21057;-76
2021/12/26 07:01:06;;;;;;;9.10;4.95;;;;;;;1.05;94.39;96976.28;1739067;82;20977;-76
2021/12/26 07:03:33;;;;;;;7.17;4.78;;;;;;;1.04;93.70;96976.70;1739152;82;21432;-76
2021/12/26 07:05:59;;;;;;;9.15;5.03;;;;;;;1.09;94.13;96975.38;1739321;82;21037;-76
2021/12/26 07:08:26;;;;;;;8.18;5.20;;;;;;;1.15;94.30;96978.36;1739159;82;21045;-77
2021/12/26 07:10:56;;;;;;;9.58;6.92;;;;;;;1.17;93.76;96982.69;1755198;81;21002;-76
2021/12/26 07:13:23;;;;;;;8.10;6.40;;;;;;;1.18;94.34;96979.22;1769537;80;21013;-76
2021/12/26 07:15:51;;;;;;;8.95;6.58;;;;;;;1.18;94.17;96979.65;1769354;81;21005;-76
2021/12/26 07:18:18;;;;;;;7.20;5.08;;;;;;;1.18;94.16;96981.83;1765862;81;21021;-76
2021/12/26 07:20:45;;;;;;;6.55;4.70;;;;;;;1.16;93.93;96980.96;1739082;82;21412;-77
2021/12/26 07:23:30;;;;;;;6.35;4.42;;;;;;;1.14;93.67;96986.65;1721541;82;21022;-76
2021/12/26 07:26:01;;;;;;;6.95;4.42;;;;;;;1.07;93.55;96987.56;1737564;82;21041;-77
2021/12/26 07:28:28;;;;;;;7.42;4.95;;;;;;;1.05;93.79;96993.24;1739288;81;20951;-77
2021/12/26 07:31:02;;;;;;;;;;;;;;;1.05;93.87;96992.78;1766496;81;21014;-76
2021/12/26 07:33:30;;;;;;;6.15;4.37;;;;;;;1.01;93.99;96995.02;1761347;81;20125;-76
2021/12/26 07:35:58;;;;;;;8.35;4.47;;;;;;;1.02;93.76;96995.86;1733918;82;21033;-76
2021/12/26 07:38:43;;;;;;;7.55;4.97;;;;;;;0.98;94.64;96993.72;1734534;82;21447;-77
2021/12/26 07:41:09;;;;;;;8.58;5.17;;;;;;;0.92;94.38;96999.00;1747654;81;21025;-76
2021/12/26 07:43:36;;;;;;;8.25;5.42;;;;;;;0.92;94.21;96995.08;1764543;81;20994;-77
2021/12/26 07:46:22;;;;;;;8.08;4.72;;;;;;;0.92;94.18;96999.00;1764863;81;20994;-76
2021/12/26 07:48:49;;;;;;;7.55;4.95;;;;;;;0.91;94.55;97002.45;1745168;81;21088;-76
2021/12/26 07:51:35;;;;;;;9.15;5.75;;;;;;;0.92;93.76;96997.23;1775148;81;21077;-76
2021/12/26 07:54:22;;;;;;;7.47;5.25;;;;;;;0.91;94.02;96999.42;1739266;81;21060;-76
2021/12/26 07:56:55;;;;;;;10.55;6.05;;;;;;;0.92;93.80;96992.47;1701793;82;20994;-76
2021/12/26 07:59:23;;;;;;;10.10;6.33;;;;;;;0.91;93.61;97007.67;1701527;82;21037;-76
2021/12/26 08:02:08;;;;;;;10.03;6.00;;;;;;;0.92;95.30;97001.61;1734538;83;21001;-76
2021/12/26 08:04:45;;;;;;;8.40;5.58;;;;;;;0.92;94.77;96991.17;1711325;81;21009;-76
2021/12/26 08:07:19;;;;;;;8.83;5.40;;;;;;;0.97;94.58;96997.22;1773542;81;21005;-76
2021/12/26 08:09:45;;;;;;;8.28;5.22;;;;;;;0.98;94.39;97002.86;1771715;81;21439;-76
2021/12/26 08:12:12;;;;;;;9.03;5.22;;;;;;;0.99;93.92;97000.66;1764468;81;21061;-77
2021/12/26 08:14:38;;;;;;;7.80;5.15;;;;;;;1.02;94.56;97003.69;1764404;81;21034;-76
2021/12/26 08:17:05;;;;;;;7.40;4.85;;;;;;;1.04;95.17;97003.26;1755396;81;21010;-76
2021/12/26 08:19:32;;;;;;;8.43;5.17;;;;;;;1.05;94.60;97007.59;1734428;83;21021;-77
2021/12/26 08:21:58;;;;;;;9.30;5.22;;;;;;;1.07;94.14;97008.44;1734446;83;21009;-77
2021/12/26 08:24:26;;;;;;;8.75;5.20;;;;;;;1.14;94.40;97009.26;1734411;83;21451;-76
2021/12/26 08:26:54;;;;;;;7.15;4.62;;;;;;;1.21;94.35;97020.52;1734162;83;21052;-76
2021/12/26 08:29:23;;;;;;;8.33;5.37;;;;;;;1.27;94.38;97012.20;1748964;81;21061;-76
2021/12/26 08:31:55;;;;;;;7.50;5.15;;;;;;;1.32;94.20;97012.15;1764436;81;21115;-76
2021/12/26 08:34:22;;;;;;;9.43;5.40;;;;;;;1.37;94.41;97011.67;1764609;81;21061;-77
2021/12/26 08:37:00;;;;;;;9.45;5.87;;;;;;;1.45;94.56;97017.70;1760395;80;21026;-77
2021/12/26 08:39:29;;;;;;;6.83;4.78;;;;;;;1.48;94.22;97016.80;1733913;82;21549;-77
2021/12/26 08:41:56;;;;;;;9.53;5.60;;;;;;;1.53;94.53;97013.70;1734389;83;21017;-77
2021/12/26 08:44:23;;;;;;;8.18;5.10;;;;;;;1.60;94.61;97017.56;1734414;83;21462;-77
2021/12/26 08:46:51;;;;;;;10.18;6.20;;;;;;;1.60;94.59;97017.12;1738186;81;21451;-77
2021/12/26 08:49:18;;;;;;;8.93;5.58;;;;;;;1.66;95.10;97012.30;1763804;81;21052;-77
2021/12/26 08:51:46;;;;;;;10.05;6.90;;;;;;;1.71;94.98;97017.88;1763670;81;21443;-77
2021/12/26 08:54:13;;;;;;;11.05;6.90;;;;;;;1.71;94.49;97019.19;1764455;81;21002;-77
2021/12/26 08:56:41;;;;;;;10.05;6.67;;;;;;;1.66;94.08;97020.98;1764672;80;21407;-77
2021/12/26 08:59:08;;;;;;;9.10;5.87;;;;;;;1.65;94.71;97014.03;1753612;80;21434;-76
2021/12/26 09:01:35;;;;;;;8.83;6.10;;;;;;;1.70;94.81;97013.97;1734282;83;21036;-77
2021/12/26 09:04:03;;;;;;;9.08;6.10;;;;;;;1.66;94.06;97011.84;1734240;83;21017;-76
2021/12/26 09:06:31;;;;;;;8.85;5.92;;;;;;;1.63;94.39;97001.45;1734255;82;21017;-77
2021/12/26 09:08:57;;;;;;;10.40;6.25;;;;;;;1.62;94.25;97005.37;1734314;83;21057;-77
2021/12/26 09:11:24;;;;;;;7.83;5.25;;;;;;;1.61;94.19;97013.63;1746347;81;21559;-77
2021/12/26 09:13:51;;;;;;;8.33;5.33;;;;;;;1.58;93.86;97005.39;1764473;81;21068;-77
2021/12/26 09:16:17;;;;;;;8.83;5.72;;;;;;;1.54;93.90;97002.38;1764704;81;21356;-76
2021/12/26 09:18:44;;;;;;;10.48;6.35;;;;;;;1.52;94.05;96998.93;1771410;81;21057;-76
2021/12/26 09:21:10;;;;;;;11.15;7.65;;;;;;;1.54;94.25;96998.45;1773531;81;21001;-77
2021/12/26 09:23:37;;;;;;;12.28;7.58;;;;;;;1.54;94.14;96998.92;1765129;81;21002;-77
2021/12/26 09:26:03;;;;;;;10.88;7.30;;;;;;;1.51;94.04;97002.42;1764708;80;20989;-76
2021/12/26 09:28:33;;;;;;;13.43;8.65;;;;;;;1.49;93.81;96991.11;1777802;80;21080;-78
2021/12/26 09:30:58;;;;;;;12.68;8.08;;;;;;;1.43;93.65;96996.40;1750165;81;20977;-78
2021/12/26 09:33:25;;;;;;;13.30;8.30;;;;;;;1.39;93.91;96994.69;1749833;82;21064;-78
2021/12/26 09:35:51;;;;;;;12.30;7.55;;;;;;;1.41;94.45;96984.66;1750080;82;20992;-78
2021/12/26 09:38:18;;;;;;;12.65;7.45;;;;;;;1.43;94.71;96992.48;1770622;80;21473;-78
2021/12/26 09:40:45;;;;;;;11.15;7.75;;;;;;;1.45;94.60;96994.20;1780870;80;21433;-78
2021/12/26 09:43:12;;;;;;;14.07;9.05;;;;;;;1.50;94.27;96999.36;1780852;80;20965;-78
2021/12/26 09:45:38;;;;;;;16.40;9.33;;;;;;;1.44;95.44;96997.70;1780908;80;20981;-78
2021/12/26 09:48:05;;;;;;;16.77;9.38;;;;;;;1.42;94.76;96991.60;1763148;80;21019;-78
2021/12/26 09:50:32;;;;;;;19.07;11.18;;;;;;;1.49;94.84;97001.55;1750095;82;21016;-78
2021/12/26 09:52:58;;;;;;;17.48;10.72;;;;;;;1.55;95.04;97000.22;1749974;82;21020;-78
2021/12/26 09:55:30;;;;;;;15.13;10.15;;;;;;;1.61;94.66;96997.96;1750195;82;21502;-78
2021/12/26 09:57:57;;;;;;;16.00;9.20;;;;;;;1.69;94.86;96997.45;1745364;82;21000;-78
2021/12/26 10:00:38;;;;;;;10.95;7.15;;;;;;;1.74;94.51;96995.23;1767805;80;20997;-76
2021/12/26 10:03:34;;;;;;;13.55;7.70;;;;;;;1.79;94.34;96986.45;1775249;79;21001;-77
2021/12/26 10:06:14;;;;;;;12.50;7.40;;;;;;;1.81;94.57;96995.16;1776911;80;21017;-76
2021/12/26 10:09:08;;;;;;;10.20;6.78;;;;;;;1.92;95.29;96992.44;1780883;80;20993;-76
2021/12/26 10:11:39;;;;;;;8.35;5.53;;;;;;;2.03;95.07;96987.52;1769954;80;21056;-76
2021/12/26 10:14:10;;;;;;;9.00;5.65;;;;;;;2.15;95.17;96998.28;1745489;82;21025;-77
2021/12/26 10:16:41;;;;;;;8.58;5.50;;;;;;;2.21;94.74;96998.20;1749964;81;21060;-76
2021/12/26 10:19:10;;;;;;;7.15;5.12;;;;;;;2.28;95.32;96993.30;1750191;82;21040;-76
2021/12/26 10:21:55;;;;;;;6.83;4.70;;;;;;;2.40;95.51;96995.35;1750058;82;21021;-76
2021/12/26 10:24:36;;;;;;;8.28;4.95;;;;;;;2.46;94.98;96993.49;1732865;80;20977;-76
2021/12/26 10:27:13;;;;;;;13.43;7.78;;;;;;;2.49;94.51;96988.23;1782558;80;21414;-76
2021/12/26 10:29:53;;;;;;;13.13;8.08;;;;;;;2.47;93.88;96987.41;1776891;80;21376;-72
2021/12/26 10:32:29;;;;;;;15.95;7.95;;;;;;;2.45;93.99;96992.23;1774770;81;21486;-72
2021/12/26 10:35:03;;;;;;;13.88;9.43;;;;;;;2.45;94.01;96989.16;1774466;81;20958;-72
2021/12/26 10:37:45;;;;;;;12.18;8.18;;;;;;;2.43;93.80;96994.86;1744449;82;21510;-71
2021/12/26 10:40:27;;;;;;;10.30;7.53;;;;;;;2.43;93.70;96997.91;1744800;82;20976;-71
2021/12/26 10:42:59;;;;;;;9.23;6.92;;;;;;;2.45;94.25;96997.00;1743841;82;20993;-72
2021/12/26 10:45:29;;;;;;;9.63;6.10;;;;;;;2.48;94.32;97000.02;1754157;81;21446;-71
2021/12/26 10:48:06;;;;;;;7.65;5.50;;;;;;;2.42;92.89;96998.37;1775211;80;21440;-71
2021/12/26 10:50:37;;;;;;;6.62;4.47;;;;;;;2.27;91.90;97003.77;1775394;81;20981;-72
2021/12/26 10:53:09;;;;;;;7.80;4.92;;;;;;;2.26;92.50;97002.05;1775415;80;21061;-72
2021/12/26 10:55:40;;;;;;;7.53;4.60;;;;;;;2.25;92.94;96997.28;1745429;81;20980;-71
2021/12/26 10:58:13;;;;;;;6.42;4.40;;;;;;;2.23;92.90;96997.72;1744757;82;21016;-71
2021/12/26 11:00:44;;;;;;;6.92;3.95;;;;;;;2.18;92.91;97009.98;1744788;82;21308;-71
2021/12/26 11:03:15;;;;;;;5.53;3.50;;;;;;;2.03;92.91;97007.97;1744742;82;21072;-72
2021/12/26 11:05:46;;;;;;;4.08;2.75;;;;;;;2.02;92.97;97010.59;1751839;81;20965;-72
2021/12/26 11:08:17;;;;;;;4.50;2.77;;;;;;;2.02;92.85;97011.47;1775442;81;21037;-72
2021/12/26 11:10:53;;;;;;;4.30;3.00;;;;;;;1.98;93.18;97001.93;1775390;80;21037;-72
2021/12/26 11:13:29;;;;;;;3.52;2.47;;;;;;;1.96;93.09;96995.41;1775004;80;21064;-72
2021/12/26 11:16:04;;;;;;;4.62;2.72;;;;;;;2.01;92.93;96995.80;1775298;80;21383;-72
2021/12/26 11:18:31;;;;;;;5.03;2.72;;;;;;;1.96;93.09;96995.41;1759965;81;21001;-71
2021/12/26 11:21:07;;;;;;;28.02;14.83;;;;;;;1.99;92.97;96999.73;1744681;82;21037;-72
2021/12/26 11:23:38;;;;;;;21.85;11.43;;;;;;;2.03;92.90;96999.28;1744835;82;21037;-72
2021/12/26 11:26:16;;;;;;;7.28;3.75;;;;;;;2.04;93.35;96989.25;1746775;81;21081;-73
2021/12/26 11:28:47;;;;;;;6.35;4.10;;;;;;;2.07;93.30;96999.64;1740281;82;20978;-71
2021/12/26 11:31:19;;;;;;;5.92;3.70;;;;;;;2.05;92.98;97001.00;1739319;81;21025;-71
2021/12/26 11:33:56;;;;;;;5.42;3.72;;;;;;;2.05;93.07;97007.53;1739092;82;21081;-71
2021/12/26 11:36:17;;;;;;;6.58;4.08;;;;;;;2.02;93.28;97006.67;1745476;81;21025;-71
2021/12/26 11:38:48;;;;;;;5.67;3.60;;;;;;;2.03;93.07;97011.89;1769353;81;21042;-71
2021/12/26 11:42:03;;;;;;;4.78;3.55;;;;;;;2.02;93.17;97016.70;1769389;81;21475;-71
2021/12/26 11:45:14;;;;;;;5.80;3.62;;;;;;;1.97;93.00;97011.97;1760191;81;21457;-72
2021/12/26 11:48:42;;;;;;;7.42;4.60;;;;;;;1.98;93.53;97021.10;1738973;82;21057;-72
2021/12/26 11:52:09;;;;;;;6.00;4.10;;;;;;;2.01;93.82;97021.94;1739118;82;22248;-72
2021/12/26 11:55:01;;;;;;;9.40;5.83;;;;;;;2.10;94.25;97024.02;1739133;81;21045;-71
2021/12/26 11:58:04;;;;;;;10.23;7.00;;;;;;;2.20;93.82;97027.38;1739103;82;20994;-71
2021/12/26 12:00:38;;;;;;;8.00;5.00;;;;;;;2.23;94.01;97031.28;1739008;82;21470;-71
2021/12/26 12:03:24;;;;;;;9.45;5.03;;;;;;;2.31;94.11;97028.57;1739016;82;21470;-71